Terminal Aerodrome Forecast
Issued by NWS

Home | Current Version | Previous Version | Text Only | Print | Product List | Glossary On
Versions: 1 2 3 4 5 6 7 8 9 10 11 12 13 14 15 16 17 18 19 20 21 22 23
000
FTUS42 KFFC 250911 AAA
TAFFTY
TAF AMD
KFTY 250911Z 2509/2606 35003KT P6SM SCT020 BKN030
      TEMPO 2509/2512 BKN020
     FM251200 32003KT P6SM BKN035
     FM251400 31007KT P6SM SCT035
     FM251600 31010KT P6SM FEW040
     FM260100 26002KT P6SM SKC=

USA.gov is the U.S. government's official web portal to all federal, state and local government web resources and services.